createdAt,value
2023-01-29T00:00:20.159Z,17.58
2023-01-29T00:02:46.604Z,16.90
2023-01-29T00:05:27.079Z,15.18
2023-01-29T00:07:55.191Z,15.65
2023-01-29T00:10:21.548Z,14.77
2023-01-29T00:12:47.880Z,17.58
2023-01-29T00:15:14.224Z,15.15
2023-01-29T00:17:40.601Z,18.25
2023-01-29T00:20:07.102Z,14.93
2023-01-29T00:22:33.444Z,20.80
2023-01-29T00:24:59.903Z,17.55
2023-01-29T00:27:26.226Z,17.90
2023-01-29T00:30:11.462Z,18.83
2023-01-29T00:32:37.840Z,21.05
2023-01-29T00:35:04.420Z,18.50
2023-01-29T00:37:30.804Z,19.77
2023-01-29T00:39:57.739Z,20.95
2023-01-29T00:42:42.543Z,22.33
2023-01-29T00:45:09.368Z,25.42
2023-01-29T00:47:35.933Z,22.15
2023-01-29T00:50:03.556Z,22.27
2023-01-29T00:52:30.413Z,22.63
2023-01-29T00:54:58.171Z,23.15
2023-01-29T00:57:25.754Z,26.73
2023-01-29T00:59:52.224Z,24.67
2023-01-29T01:02:37.485Z,25.80
2023-01-29T01:05:06.071Z,27.58
2023-01-29T01:07:32.489Z,26.42
2023-01-29T01:10:17.717Z,25.85
2023-01-29T01:12:44.212Z,26.08
2023-01-29T01:15:10.899Z,25.67
2023-01-29T01:17:37.272Z,25.48
2023-01-29T01:20:04.057Z,23.88
2023-01-29T01:22:31.872Z,25.00
2023-01-29T01:24:58.240Z,22.90
2023-01-29T01:27:25.630Z,26.20
2023-01-29T01:29:52.027Z,26.33
2023-01-29T01:32:18.410Z,24.17
2023-01-29T01:34:47.411Z,24.73
2023-01-29T01:37:13.792Z,26.65
2023-01-29T01:39:40.287Z,25.63
2023-01-29T01:42:12.105Z,25.95
2023-01-29T01:44:59.220Z,25.77
2023-01-29T01:47:40.238Z,22.83
2023-01-29T01:50:11.730Z,24.10
2023-01-29T01:52:41.810Z,24.83
2023-01-29T01:55:09.262Z,25.55
2023-01-29T01:57:36.279Z,23.80
2023-01-29T02:00:11.315Z,25.50
2023-01-29T02:02:57.429Z,22.50
2023-01-29T02:05:42.267Z,24.48
2023-01-29T02:08:27.833Z,22.05
2023-01-29T02:10:54.891Z,20.77
2023-01-29T02:13:21.479Z,24.10
2023-01-29T02:15:48.893Z,20.05
2023-01-29T02:18:20.180Z,18.85
2023-01-29T02:20:55.636Z,21.15
2023-01-29T02:23:27.083Z,18.33
2023-01-29T02:26:04.320Z,18.10
2023-01-29T02:28:30.733Z,20.15
2023-01-29T02:31:01.218Z,21.13
2023-01-29T02:33:45.748Z,19.52
2023-01-29T02:36:30.855Z,21.75
2023-01-29T02:39:04.944Z,22.58
2023-01-29T02:41:37.243Z,21.23
2023-01-29T02:44:07.860Z,19.48
2023-01-29T02:46:53.444Z,19.30
2023-01-29T02:49:22.809Z,20.27
2023-01-29T02:51:52.123Z,18.13
2023-01-29T02:54:23.831Z,19.23
2023-01-29T02:56:57.850Z,17.67
2023-01-29T02:59:53.795Z,19.88
2023-01-29T03:02:29.028Z,17.20
2023-01-29T03:04:58.825Z,18.42
2023-01-29T03:07:46.307Z,20.80
2023-01-29T03:10:18.576Z,23.48
2023-01-29T03:12:47.906Z,25.20
2023-01-29T03:15:18.036Z,23.88
2023-01-29T03:17:53.586Z,20.13
2023-01-29T03:20:22.540Z,19.38
2023-01-29T03:22:51.506Z,25.58
2023-01-29T03:25:38.403Z,21.23
2023-01-29T03:28:24.787Z,24.40
2023-01-29T03:31:14.323Z,24.23
2023-01-29T03:33:43.704Z,27.27
2023-01-29T03:36:12.700Z,28.17
2023-01-29T03:38:40.031Z,28.50
2023-01-29T03:41:14.176Z,25.85
2023-01-29T03:43:47.419Z,29.17
2023-01-29T03:46:24.046Z,28.38
2023-01-29T03:48:50.405Z,26.35
2023-01-29T03:51:24.995Z,27.48
2023-01-29T03:54:02.587Z,25.73
2023-01-29T03:56:46.155Z,30.63
2023-01-29T03:59:18.503Z,28.85
2023-01-29T04:01:54.533Z,32.05
2023-01-29T04:04:24.270Z,25.50
2023-01-29T04:06:53.130Z,29.40
2023-01-29T04:09:23.377Z,25.40
2023-01-29T04:11:52.428Z,25.20
2023-01-29T04:14:19.028Z,24.35
2023-01-29T04:16:48.448Z,24.30
2023-01-29T04:19:14.860Z,28.05
2023-01-29T04:21:41.605Z,23.02
2023-01-29T04:24:08.429Z,23.08
2023-01-29T04:26:37.785Z,21.95
2023-01-29T04:29:07.272Z,19.67
2023-01-29T04:31:36.102Z,23.42
2023-01-29T04:34:18.009Z,18.88
2023-01-29T04:36:52.812Z,24.88
2023-01-29T04:39:39.531Z,23.00
2023-01-29T04:42:09.205Z,21.33
2023-01-29T04:44:35.526Z,21.77
2023-01-29T04:47:01.895Z,21.63
2023-01-29T04:49:37.184Z,19.25
2023-01-29T04:52:19.752Z,22.30
2023-01-29T04:55:01.478Z,21.08
2023-01-29T04:57:33.781Z,23.67
2023-01-29T05:00:12.905Z,23.15
2023-01-29T05:02:40.085Z,21.63
2023-01-29T05:05:07.581Z,21.45
2023-01-29T05:07:35.500Z,20.77
2023-01-29T05:12:29.408Z,21.30
2023-01-29T05:14:58.743Z,20.40
2023-01-29T05:17:25.726Z,22.27
2023-01-29T05:19:52.293Z,21.80
2023-01-29T05:22:22.639Z,21.05
2023-01-29T05:24:49.764Z,19.33
2023-01-29T05:27:39.984Z,22.70
2023-01-29T05:30:06.681Z,23.63
2023-01-29T05:32:33.262Z,22.98
2023-01-29T05:34:59.664Z,19.80
2023-01-29T05:37:25.996Z,23.13
2023-01-29T05:39:52.382Z,23.08
2023-01-29T05:42:18.759Z,21.75
2023-01-29T05:44:45.120Z,20.55
2023-01-29T05:47:11.461Z,18.55
2023-01-29T05:49:38.840Z,23.15
2023-01-29T05:52:05.473Z,22.50
2023-01-29T05:54:31.810Z,21.77
2023-01-29T05:56:58.148Z,21.70
2023-01-29T05:59:24.551Z,22.45
2023-01-29T06:01:50.923Z,20.63
2023-01-29T06:04:17.284Z,19.52
2023-01-29T06:06:43.638Z,22.48
2023-01-29T06:09:10.834Z,22.48
2023-01-29T06:11:37.207Z,24.90
2023-01-29T06:14:03.659Z,24.55
2023-01-29T06:16:30.130Z,24.13
2023-01-29T06:18:56.745Z,25.63
2023-01-29T06:21:23.164Z,24.55
2023-01-29T06:23:51.847Z,23.33
2023-01-29T06:26:18.288Z,25.15
2023-01-29T06:28:45.973Z,27.38
2023-01-29T06:31:30.414Z,24.70
2023-01-29T06:33:58.852Z,22.17
2023-01-29T06:36:25.190Z,24.75
2023-01-29T06:38:51.526Z,24.67
2023-01-29T06:41:19.149Z,21.17
2023-01-29T06:43:46.000Z,22.00
2023-01-29T06:46:12.464Z,23.13
2023-01-29T06:48:38.914Z,20.60
2023-01-29T06:51:06.625Z,21.95
2023-01-29T06:53:33.742Z,20.15
2023-01-29T06:56:00.160Z,19.25
2023-01-29T06:58:26.628Z,19.02
2023-01-29T07:00:53.168Z,19.35
2023-01-29T07:03:19.551Z,17.50
2023-01-29T07:05:52.888Z,17.88
2023-01-29T07:08:19.477Z,20.65
2023-01-29T07:10:45.888Z,18.13
2023-01-29T07:13:12.231Z,17.45
2023-01-29T07:15:38.608Z,16.85
2023-01-29T07:18:11.871Z,15.88
2023-01-29T07:20:39.676Z,18.63
2023-01-29T07:23:06.373Z,17.55
2023-01-29T07:25:33.514Z,17.65
2023-01-29T07:28:03.296Z,18.53
2023-01-29T07:30:30.019Z,19.05
2023-01-29T07:33:00.781Z,17.60
2023-01-29T07:35:27.136Z,15.07
2023-01-29T07:37:53.459Z,16.17
2023-01-29T07:40:19.822Z,15.30
2023-01-29T07:42:46.806Z,12.80
2023-01-29T07:45:13.257Z,15.30
2023-01-29T07:47:39.623Z,12.65
2023-01-29T07:50:06.241Z,13.25
2023-01-29T07:52:33.444Z,10.60
2023-01-29T07:54:59.779Z,10.85
2023-01-29T07:57:26.136Z,10.88
2023-01-29T07:59:52.467Z,8.75
2023-01-29T08:02:18.878Z,9.07
2023-01-29T08:04:45.322Z,9.38
2023-01-29T08:07:11.672Z,10.68
2023-01-29T08:09:38.001Z,10.18
2023-01-29T08:12:04.502Z,9.45
2023-01-29T08:14:30.872Z,10.48
2023-01-29T08:16:57.247Z,9.75
2023-01-29T08:19:23.615Z,9.30
2023-01-29T08:21:49.929Z,9.90
2023-01-29T08:24:16.325Z,9.75
2023-01-29T08:26:42.678Z,9.00
2023-01-29T08:29:09.033Z,8.80
2023-01-29T08:31:35.467Z,8.95
2023-01-29T08:34:01.930Z,9.00
2023-01-29T08:36:28.320Z,8.15
2023-01-29T08:38:54.653Z,8.40
2023-01-29T08:41:20.984Z,8.45
2023-01-29T08:43:47.403Z,8.52
2023-01-29T08:46:14.022Z,9.43
2023-01-29T08:48:40.400Z,8.93
2023-01-29T08:51:06.871Z,8.02
2023-01-29T08:53:33.276Z,8.90
2023-01-29T08:55:59.827Z,7.00
2023-01-29T08:58:26.193Z,7.38
2023-01-29T09:00:52.603Z,6.47
2023-01-29T09:03:19.021Z,7.07
2023-01-29T09:05:46.825Z,6.70
2023-01-29T09:08:13.240Z,5.70
2023-01-29T09:10:39.563Z,5.20
2023-01-29T09:13:05.946Z,5.32
2023-01-29T09:15:32.366Z,5.63
2023-01-29T09:18:02.366Z,5.82
2023-01-29T09:20:28.803Z,5.07
2023-01-29T09:22:56.701Z,5.70
2023-01-29T09:27:49.365Z,5.10
2023-01-29T09:30:15.981Z,4.10
2023-01-29T09:32:53.672Z,5.10
2023-01-29T09:35:21.999Z,5.10
2023-01-29T09:37:48.787Z,4.38
2023-01-29T09:40:20.996Z,4.15
2023-01-29T09:42:50.747Z,4.55
2023-01-29T09:45:22.109Z,4.40
2023-01-29T09:47:48.842Z,4.45
2023-01-29T09:50:20.135Z,3.63
2023-01-29T09:52:51.234Z,4.13
2023-01-29T09:55:52.889Z,4.88
2023-01-29T09:58:39.776Z,4.88
2023-01-29T10:01:18.054Z,3.92
2023-01-29T10:04:03.718Z,3.85
2023-01-29T10:06:49.008Z,4.50
2023-01-29T10:09:34.353Z,3.40
2023-01-29T10:12:03.608Z,3.25
2023-01-29T10:14:37.980Z,2.72
2023-01-29T10:17:18.112Z,3.25
2023-01-29T10:19:44.467Z,3.35
2023-01-29T10:22:23.000Z,2.90
2023-01-29T10:25:19.256Z,3.80
2023-01-29T10:27:48.580Z,3.53
2023-01-29T10:30:25.587Z,3.28
2023-01-29T10:32:52.419Z,3.88
2023-01-29T10:35:28.185Z,4.03
2023-01-29T10:37:55.034Z,5.10
2023-01-29T10:40:32.623Z,5.07
2023-01-29T10:43:28.432Z,4.32
2023-01-29T10:46:06.090Z,4.80
2023-01-29T10:51:12.153Z,4.60
2023-01-29T10:53:46.604Z,4.43
2023-01-29T10:56:33.158Z,4.88
2023-01-29T10:59:01.429Z,3.63
2023-01-29T11:01:27.850Z,3.47
2023-01-29T11:03:56.725Z,3.33
2023-01-29T11:06:25.353Z,3.30
2023-01-29T11:09:10.265Z,3.40
2023-01-29T11:11:36.603Z,2.75
2023-01-29T11:14:10.312Z,3.13
2023-01-29T11:16:43.860Z,3.28
2023-01-29T11:19:10.649Z,2.70
2023-01-29T11:22:01.026Z,2.90
2023-01-29T11:24:27.931Z,3.00
2023-01-29T11:26:57.506Z,2.40
2023-01-29T11:29:27.245Z,2.20
2023-01-29T11:31:53.842Z,2.22
2023-01-29T11:34:25.187Z,2.97
2023-01-29T11:36:57.091Z,2.25
2023-01-29T11:39:24.026Z,5.28
2023-01-29T11:41:53.419Z,6.63
2023-01-29T11:44:20.720Z,4.78
2023-01-29T11:46:47.598Z,3.00
2023-01-29T11:49:21.917Z,1.77
2023-01-29T11:51:52.256Z,6.68
2023-01-29T11:54:20.146Z,2.78
2023-01-29T11:56:46.829Z,2.40
2023-01-29T11:59:28.938Z,2.10
2023-01-29T12:01:55.513Z,3.22
2023-01-29T12:04:24.606Z,4.03
2023-01-29T12:06:53.101Z,1.80
2023-01-29T12:09:21.299Z,4.28
2023-01-29T12:11:47.744Z,3.92
2023-01-29T12:14:22.836Z,3.33
2023-01-29T12:16:53.788Z,3.95
2023-01-29T12:19:27.543Z,4.38
2023-01-29T12:21:58.070Z,3.22
2023-01-29T12:24:43.388Z,6.68
2023-01-29T12:27:15.236Z,1.20
2023-01-29T12:30:03.851Z,2.97
2023-01-29T12:32:45.674Z,1.50
2023-01-29T12:35:21.231Z,1.50
2023-01-29T12:37:57.520Z,0.32
2023-01-29T12:40:27.023Z,0.85
2023-01-29T12:42:57.767Z,0.85
2023-01-29T12:45:25.160Z,1.13
2023-01-29T12:47:56.685Z,1.13
2023-01-29T12:50:26.912Z,0.65
2023-01-29T12:52:56.383Z,0.47
2023-01-29T12:55:26.127Z,1.75
2023-01-29T12:58:09.674Z,1.05
2023-01-29T13:00:38.504Z,2.25
2023-01-29T13:03:08.091Z,4.28
2023-01-29T13:05:55.076Z,3.00
2023-01-29T13:08:24.828Z,5.60
2023-01-29T13:10:52.836Z,4.38
2023-01-29T13:13:36.833Z,3.92
2023-01-29T13:16:04.391Z,2.05
2023-01-29T13:18:47.843Z,1.73
2023-01-29T13:21:17.509Z,0.65
2023-01-29T13:23:47.068Z,1.55
2023-01-29T13:26:17.622Z,1.10
2023-01-29T13:28:44.870Z,2.20
2023-01-29T13:31:18.455Z,0.60
2023-01-29T13:33:52.198Z,6.07
2023-01-29T13:36:23.553Z,4.57
2023-01-29T13:38:55.545Z,4.70
2023-01-29T13:41:31.305Z,4.45
2023-01-29T13:43:57.698Z,3.03
2023-01-29T13:46:24.081Z,4.70
2023-01-29T13:48:52.260Z,7.47
2023-01-29T13:51:21.897Z,4.32
2023-01-29T13:53:56.390Z,9.90
2023-01-29T13:56:28.623Z,5.30
2023-01-29T13:58:55.729Z,5.70
2023-01-29T14:01:40.685Z,4.75
2023-01-29T14:04:19.399Z,3.13
2023-01-29T14:06:52.536Z,6.13
2023-01-29T14:09:32.023Z,4.05
2023-01-29T14:11:58.727Z,3.22
2023-01-29T14:14:50.146Z,7.10
2023-01-29T14:17:17.255Z,4.18
2023-01-29T14:19:50.982Z,5.05
2023-01-29T14:22:27.815Z,4.95
2023-01-29T14:24:55.656Z,9.67
2023-01-29T14:29:48.545Z,4.93
2023-01-29T14:32:19.499Z,4.88
2023-01-29T14:34:48.756Z,6.65
2023-01-29T14:37:15.084Z,5.55
2023-01-29T14:39:44.486Z,7.72
2023-01-29T14:42:19.651Z,12.07
2023-01-29T14:44:46.423Z,3.78
2023-01-29T14:47:36.117Z,4.28
2023-01-29T14:50:22.571Z,4.68
2023-01-29T14:52:50.645Z,6.18
2023-01-29T14:55:29.579Z,5.20
2023-01-29T14:57:58.161Z,7.05
2023-01-29T15:00:29.158Z,9.43
2023-01-29T15:03:01.905Z,5.93
2023-01-29T15:05:30.696Z,6.43
2023-01-29T15:08:00.347Z,8.10
2023-01-29T15:10:37.190Z,5.45
2023-01-29T15:13:08.116Z,3.00
2023-01-29T15:15:34.689Z,5.15
2023-01-29T15:18:16.726Z,10.43
2023-01-29T15:20:43.647Z,6.78
2023-01-29T15:23:26.776Z,8.47
2023-01-29T15:25:55.011Z,11.23
2023-01-29T15:28:21.663Z,11.20
2023-01-29T15:30:52.531Z,8.88
2023-01-29T15:33:19.091Z,6.15
2023-01-29T15:35:48.315Z,4.78
2023-01-29T15:38:22.013Z,8.23
2023-01-29T15:40:52.375Z,10.60
2023-01-29T15:43:25.978Z,19.65
2023-01-29T15:45:53.725Z,14.80
2023-01-29T15:48:22.645Z,88.20
2023-01-29T15:50:50.150Z,16.98
2023-01-29T15:53:20.029Z,9.32
2023-01-29T15:55:47.385Z,13.77
2023-01-29T15:58:16.481Z,3.30
2023-01-29T16:00:49.236Z,4.80
2023-01-29T16:03:16.082Z,3.90
2023-01-29T16:05:42.722Z,5.70
2023-01-29T16:08:12.909Z,5.47
2023-01-29T16:10:40.609Z,3.70
2023-01-29T16:13:09.278Z,7.95
2023-01-29T16:15:36.748Z,4.97
2023-01-29T16:18:23.350Z,11.48
2023-01-29T16:20:53.708Z,7.78
2023-01-29T16:23:28.097Z,8.77
2023-01-29T16:25:56.126Z,8.18
2023-01-29T16:28:22.506Z,6.95
2023-01-29T16:30:54.982Z,11.40
2023-01-29T16:33:21.503Z,6.25
2023-01-29T16:35:52.089Z,7.40
2023-01-29T16:38:28.187Z,8.45
2023-01-29T16:41:17.581Z,12.38
2023-01-29T16:43:44.056Z,6.43
2023-01-29T16:46:33.960Z,4.20
2023-01-29T16:49:00.745Z,3.15
2023-01-29T16:51:27.177Z,4.97
2023-01-29T16:54:16.138Z,6.43
2023-01-29T16:56:44.159Z,4.45
2023-01-29T16:59:16.302Z,9.05
2023-01-29T17:01:43.139Z,4.57
2023-01-29T17:04:17.146Z,3.47
2023-01-29T17:06:45.479Z,5.03
2023-01-29T17:09:19.315Z,4.30
2023-01-29T17:11:45.708Z,4.40
2023-01-29T17:14:17.803Z,3.28
2023-01-29T17:16:51.295Z,4.53
2023-01-29T17:19:20.860Z,4.82
2023-01-29T17:21:47.363Z,3.42
2023-01-29T17:24:13.783Z,3.90
2023-01-29T17:26:40.528Z,5.82
2023-01-29T17:29:10.873Z,6.15
2023-01-29T17:31:37.354Z,6.28
2023-01-29T17:34:09.227Z,5.45
2023-01-29T17:36:35.620Z,5.03
2023-01-29T17:39:01.991Z,4.38
2023-01-29T17:41:28.980Z,4.22
2023-01-29T17:43:55.379Z,4.83
2023-01-29T17:46:21.814Z,6.40
2023-01-29T17:48:49.540Z,5.38
2023-01-29T17:51:16.993Z,5.30
2023-01-29T17:53:46.246Z,4.70
2023-01-29T17:56:29.488Z,5.78
2023-01-29T17:58:55.891Z,7.80
2023-01-29T18:01:22.219Z,5.72
2023-01-29T18:03:48.585Z,7.55
2023-01-29T18:06:33.074Z,6.47
2023-01-29T18:08:59.461Z,5.10
2023-01-29T18:11:25.988Z,11.93
2023-01-29T18:13:52.381Z,6.97
2023-01-29T18:16:21.516Z,11.10
2023-01-29T18:18:48.216Z,7.85
2023-01-29T18:21:14.733Z,14.52
2023-01-29T18:23:41.410Z,10.27
2023-01-29T18:26:10.264Z,20.10
2023-01-29T18:28:36.716Z,26.17
2023-01-29T18:31:06.440Z,10.50
2023-01-29T18:33:34.229Z,9.15
2023-01-29T18:36:00.798Z,5.75
2023-01-29T18:38:27.507Z,7.72
2023-01-29T18:40:53.856Z,6.45
2023-01-29T18:43:20.236Z,8.88
2023-01-29T18:45:46.733Z,6.80
2023-01-29T18:48:14.158Z,7.03
2023-01-29T18:50:40.531Z,8.02
2023-01-29T18:53:07.665Z,6.13
2023-01-29T18:55:34.080Z,10.90
2023-01-29T18:58:29.019Z,10.57
2023-01-29T19:00:46.871Z,10.20
2023-01-29T19:03:13.299Z,9.13
2023-01-29T19:05:39.680Z,10.57
2023-01-29T19:08:06.139Z,9.02
2023-01-29T19:10:32.614Z,9.68
2023-01-29T19:12:58.955Z,9.80
2023-01-29T19:15:25.379Z,7.72
2023-01-29T19:17:51.932Z,8.95
2023-01-29T19:20:18.644Z,7.72
2023-01-29T19:22:45.125Z,11.35
2023-01-29T19:25:12.579Z,10.35
2023-01-29T19:27:38.906Z,6.18
2023-01-29T19:30:05.827Z,6.03
2023-01-29T19:32:32.615Z,8.95
2023-01-29T19:34:58.954Z,9.88
2023-01-29T19:37:25.688Z,13.30
2023-01-29T19:39:52.078Z,16.35
2023-01-29T19:42:20.322Z,10.75
2023-01-29T19:44:46.715Z,14.25
2023-01-29T19:47:13.147Z,12.60
2023-01-29T19:49:40.540Z,10.80
2023-01-29T19:52:14.793Z,20.77
2023-01-29T19:54:46.158Z,8.07
2023-01-29T19:57:12.663Z,6.35
2023-01-29T19:59:39.096Z,16.00
2023-01-29T20:02:05.564Z,6.07
2023-01-29T20:04:32.303Z,9.10
2023-01-29T20:06:59.465Z,6.90
2023-01-29T20:09:25.921Z,4.57
2023-01-29T20:11:52.384Z,12.23
2023-01-29T20:14:18.742Z,6.40
2023-01-29T20:16:45.070Z,13.02
2023-01-29T20:19:13.427Z,7.28
2023-01-29T20:21:41.830Z,6.47
2023-01-29T20:24:12.146Z,11.27
2023-01-29T20:26:38.990Z,16.17
2023-01-29T20:29:06.486Z,10.67
2023-01-29T20:31:33.382Z,9.10
2023-01-29T20:33:59.805Z,10.18
2023-01-29T20:36:26.285Z,5.55
2023-01-29T20:38:52.637Z,4.88
2023-01-29T20:41:19.915Z,5.97
2023-01-29T20:43:47.098Z,9.05
2023-01-29T20:46:13.883Z,4.22
2023-01-29T20:48:42.046Z,7.30
2023-01-29T20:51:13.737Z,7.78
2023-01-29T20:53:41.098Z,6.07
2023-01-29T20:56:07.987Z,6.05
2023-01-29T20:58:34.602Z,7.28
2023-01-29T21:01:01.059Z,5.07
2023-01-29T21:03:27.563Z,6.35
2023-01-29T21:05:54.411Z,10.32
2023-01-29T21:08:20.790Z,13.63
2023-01-29T21:10:48.742Z,9.88
2023-01-29T21:15:41.833Z,11.40
2023-01-29T21:18:08.151Z,11.32
2023-01-29T21:20:34.535Z,9.57
2023-01-29T21:23:04.160Z,6.47
2023-01-29T21:25:31.793Z,12.70
2023-01-29T21:27:58.217Z,8.50
2023-01-29T21:30:24.769Z,14.75
2023-01-29T21:32:51.219Z,7.20
2023-01-29T21:35:17.568Z,9.60
2023-01-29T21:37:43.915Z,14.75
2023-01-29T21:40:10.620Z,10.25
2023-01-29T21:42:55.553Z,11.40
2023-01-29T21:45:21.903Z,11.23
2023-01-29T21:47:48.303Z,16.25
2023-01-29T21:50:15.205Z,11.77
2023-01-29T21:52:41.849Z,14.52
2023-01-29T21:55:08.449Z,11.05
2023-01-29T21:57:34.868Z,10.57
2023-01-29T22:00:01.705Z,7.78
2023-01-29T22:02:30.880Z,8.30
2023-01-29T22:05:16.607Z,11.30
2023-01-29T22:10:12.105Z,19.90
2023-01-29T22:12:38.754Z,9.35
2023-01-29T22:15:05.508Z,13.38
2023-01-29T22:17:31.917Z,7.72
2023-01-29T22:19:58.366Z,10.35
2023-01-29T22:22:24.710Z,12.30
2023-01-29T22:24:52.661Z,6.40
2023-01-29T22:29:45.248Z,11.48
2023-01-29T22:32:11.864Z,11.73
2023-01-29T22:34:38.209Z,14.18
2023-01-29T22:37:04.552Z,11.10
2023-01-29T22:39:30.948Z,6.85
2023-01-29T22:41:57.435Z,12.18
2023-01-29T22:44:23.880Z,7.97
2023-01-29T22:46:50.448Z,8.23
2023-01-29T22:49:17.333Z,9.00
2023-01-29T22:51:43.666Z,9.43
2023-01-29T22:54:10.946Z,8.57
2023-01-29T22:56:37.278Z,8.95
2023-01-29T22:59:03.714Z,8.50
2023-01-29T23:01:31.387Z,5.95
2023-01-29T23:03:57.783Z,6.63
2023-01-29T23:06:24.133Z,7.85
2023-01-29T23:08:51.067Z,7.88
2023-01-29T23:11:19.912Z,6.57
2023-01-29T23:13:47.802Z,6.78
2023-01-29T23:18:40.536Z,6.05
2023-01-29T23:21:07.017Z,5.50
2023-01-29T23:23:34.034Z,6.82
2023-01-29T23:26:20.228Z,13.93
2023-01-29T23:28:46.919Z,10.82
2023-01-29T23:31:13.722Z,8.38
2023-01-29T23:33:40.121Z,7.07
2023-01-29T23:36:07.012Z,6.85
2023-01-29T23:38:33.470Z,8.40
2023-01-29T23:40:59.969Z,7.30
2023-01-29T23:43:29.523Z,5.93
2023-01-29T23:45:56.210Z,6.47
2023-01-29T23:48:22.950Z,9.05
2023-01-29T23:50:49.454Z,9.93
2023-01-29T23:53:16.340Z,12.63
2023-01-29T23:55:42.741Z,5.93
2023-01-29T23:58:09.525Z,9.35
